createdAt,value
2024-01-26T00:01:42.434Z,44.58
2024-01-26T00:04:10.631Z,31.88
2024-01-26T00:06:38.844Z,19.90
2024-01-26T00:09:12.174Z,27.25
2024-01-26T00:11:40.745Z,26.08
2024-01-26T00:14:09.250Z,26.98
2024-01-26T00:16:40.758Z,21.88
2024-01-26T00:19:09.633Z,17.70
2024-01-26T00:21:38.950Z,24.35
2024-01-26T00:24:07.121Z,22.80
2024-01-26T00:26:35.178Z,20.55
2024-01-26T00:29:03.101Z,17.73
2024-01-26T00:31:31.058Z,19.20
2024-01-26T00:34:00.570Z,20.90
2024-01-26T00:36:28.745Z,20.60
2024-01-26T00:38:56.655Z,23.15
2024-01-26T00:41:25.033Z,21.73
2024-01-26T00:43:53.098Z,19.50
2024-01-26T00:46:21.195Z,15.32
2024-01-26T00:48:49.700Z,22.85
2024-01-26T00:51:19.276Z,20.55
2024-01-26T00:53:47.342Z,20.65
2024-01-26T00:56:15.696Z,19.75
2024-01-26T00:58:43.650Z,15.63
2024-01-26T01:01:11.865Z,14.43
2024-01-26T01:03:39.936Z,19.08
2024-01-26T01:06:07.938Z,19.77
2024-01-26T01:08:37.386Z,20.88
2024-01-26T01:11:07.281Z,17.80
2024-01-26T01:13:36.040Z,18.73
2024-01-26T01:16:04.178Z,16.50
2024-01-26T01:18:32.528Z,16.25
2024-01-26T01:21:00.877Z,22.20
2024-01-26T01:23:28.831Z,19.00
2024-01-26T01:25:58.260Z,17.92
2024-01-26T01:28:26.204Z,24.07
2024-01-26T01:30:54.174Z,19.15
2024-01-26T01:33:22.283Z,22.17
2024-01-26T01:35:50.370Z,17.33
2024-01-26T01:38:18.366Z,22.38
2024-01-26T01:40:46.996Z,17.55
2024-01-26T01:43:19.234Z,17.00
2024-01-26T01:45:47.300Z,14.70
2024-01-26T01:48:15.495Z,14.02
2024-01-26T01:50:44.424Z,15.75
2024-01-26T01:53:13.738Z,15.05
2024-01-26T01:55:43.573Z,20.27
2024-01-26T01:58:12.073Z,13.55
2024-01-26T02:00:42.561Z,19.65
2024-01-26T02:03:10.896Z,15.63
2024-01-26T02:05:39.024Z,19.38
2024-01-26T02:08:07.540Z,27.33
2024-01-26T02:10:35.507Z,19.35
2024-01-26T02:13:04.920Z,21.75
2024-01-26T02:15:32.954Z,20.92
2024-01-26T02:18:02.403Z,20.35
2024-01-26T02:20:38.858Z,19.77
2024-01-26T02:23:22.772Z,23.75
2024-01-26T02:25:50.738Z,16.77
2024-01-26T02:28:18.783Z,20.17
2024-01-26T02:30:47.126Z,21.65
2024-01-26T02:33:15.307Z,11.32
2024-01-26T02:35:44.278Z,13.10
2024-01-26T02:38:12.362Z,11.95
2024-01-26T02:40:41.761Z,11.18
2024-01-26T02:43:09.811Z,14.23
2024-01-26T02:45:37.912Z,13.00
2024-01-26T02:48:06.528Z,11.02
2024-01-26T02:50:35.737Z,11.90
2024-01-26T02:53:03.838Z,16.33
2024-01-26T02:55:32.050Z,10.80
2024-01-26T02:58:01.368Z,18.80
2024-01-26T03:00:29.320Z,11.60
2024-01-26T03:02:57.827Z,14.13
2024-01-26T03:05:25.924Z,13.48
2024-01-26T03:07:53.919Z,11.98
2024-01-26T03:10:21.950Z,14.60
2024-01-26T03:12:49.996Z,8.35
2024-01-26T03:15:19.694Z,15.15
2024-01-26T03:17:47.862Z,13.88
2024-01-26T03:20:17.708Z,12.35
2024-01-26T03:22:45.932Z,20.75
2024-01-26T03:25:15.079Z,12.48
2024-01-26T03:27:43.069Z,13.48
2024-01-26T03:30:12.260Z,14.57
2024-01-26T03:32:41.782Z,11.03
2024-01-26T03:35:10.849Z,12.25
2024-01-26T03:37:39.852Z,9.75
2024-01-26T03:40:09.113Z,13.18
2024-01-26T03:42:37.060Z,10.55
2024-01-26T03:45:05.882Z,12.38
2024-01-26T03:47:33.885Z,11.48
2024-01-26T03:50:05.721Z,8.25
2024-01-26T03:52:33.828Z,10.02
2024-01-26T03:55:02.439Z,11.07
2024-01-26T03:57:30.493Z,9.00
2024-01-26T03:59:58.464Z,8.85
2024-01-26T04:02:26.517Z,9.98
2024-01-26T04:04:54.568Z,9.45
2024-01-26T04:07:23.916Z,9.35
2024-01-26T04:09:51.826Z,12.63
2024-01-26T04:12:21.991Z,10.10
2024-01-26T04:14:50.718Z,12.65
2024-01-26T04:17:18.681Z,13.80
2024-01-26T04:19:46.759Z,14.60
2024-01-26T04:22:14.867Z,13.23
2024-01-26T04:24:44.224Z,12.68
2024-01-26T04:27:12.226Z,11.63
2024-01-26T04:29:40.247Z,10.52
2024-01-26T04:32:08.579Z,11.48
2024-01-26T04:34:39.083Z,10.93
2024-01-26T04:37:07.310Z,15.45
2024-01-26T04:39:35.320Z,13.20
2024-01-26T04:42:05.212Z,13.48
2024-01-26T04:44:33.271Z,16.35
2024-01-26T04:47:01.301Z,42.00
2024-01-26T04:49:29.266Z,20.92
2024-01-26T04:51:57.172Z,19.38
2024-01-26T04:54:25.211Z,15.50
2024-01-26T04:56:53.360Z,15.38
2024-01-26T04:59:22.796Z,15.88
2024-01-26T05:01:50.734Z,13.57
2024-01-26T05:04:18.795Z,12.57
2024-01-26T05:06:46.955Z,10.30
2024-01-26T05:09:15.742Z,11.93
2024-01-26T05:11:43.826Z,12.98
2024-01-26T05:14:11.772Z,9.30
2024-01-26T05:16:41.134Z,10.82
2024-01-26T05:19:09.232Z,17.77
2024-01-26T05:21:37.452Z,17.98
2024-01-26T05:24:06.133Z,15.63
2024-01-26T05:26:34.902Z,13.32
2024-01-26T05:29:02.806Z,10.60
2024-01-26T05:31:30.666Z,12.35
2024-01-26T05:34:00.075Z,14.82
2024-01-26T05:36:28.165Z,11.95
2024-01-26T05:38:56.233Z,11.98
2024-01-26T05:41:24.256Z,12.25
2024-01-26T05:43:52.173Z,11.02
2024-01-26T05:46:20.108Z,12.30
2024-01-26T05:48:48.141Z,13.40
2024-01-26T05:51:17.666Z,10.75
2024-01-26T05:53:45.631Z,9.67
2024-01-26T05:56:13.570Z,9.45
2024-01-26T05:58:41.445Z,10.13
2024-01-26T06:01:09.491Z,10.45
2024-01-26T06:03:37.595Z,11.95
2024-01-26T06:06:06.218Z,12.75
2024-01-26T06:08:35.562Z,12.45
2024-01-26T06:11:04.261Z,11.43
2024-01-26T06:13:32.330Z,13.02
2024-01-26T06:16:00.722Z,12.27
2024-01-26T06:18:28.808Z,13.25
2024-01-26T06:20:56.890Z,22.65
2024-01-26T06:23:24.917Z,19.83
2024-01-26T06:25:54.502Z,18.25
2024-01-26T06:28:22.425Z,19.02
2024-01-26T06:30:50.956Z,18.88
2024-01-26T06:33:19.631Z,14.98
2024-01-26T06:35:48.061Z,14.18
2024-01-26T06:38:16.079Z,14.10
2024-01-26T06:40:45.868Z,13.52
2024-01-26T06:43:17.661Z,11.75
2024-01-26T06:45:46.022Z,12.15
2024-01-26T06:48:14.360Z,11.68
2024-01-26T06:50:42.633Z,13.80
2024-01-26T06:53:11.556Z,11.23
2024-01-26T06:55:39.663Z,11.40
2024-01-26T06:58:07.574Z,12.50
2024-01-26T07:00:36.898Z,11.25
2024-01-26T07:03:05.452Z,11.43
2024-01-26T07:05:33.633Z,15.25
2024-01-26T07:08:01.647Z,16.67
2024-01-26T07:10:30.131Z,12.88
2024-01-26T07:12:58.043Z,14.32
2024-01-26T07:15:26.664Z,12.80
2024-01-26T07:17:56.116Z,13.88
2024-01-26T07:20:24.686Z,11.77
2024-01-26T07:22:52.760Z,11.10
2024-01-26T07:25:21.283Z,11.30
2024-01-26T07:27:49.490Z,17.98
2024-01-26T07:30:18.778Z,10.32
2024-01-26T07:32:47.457Z,12.98
2024-01-26T07:35:17.085Z,13.05
2024-01-26T07:37:45.254Z,15.77
2024-01-26T07:40:14.067Z,10.80
2024-01-26T07:42:42.031Z,13.15
2024-01-26T07:45:11.825Z,11.57
2024-01-26T07:47:39.913Z,11.48
2024-01-26T07:50:08.879Z,12.50
2024-01-26T07:52:39.167Z,11.60
2024-01-26T07:57:35.283Z,11.52
2024-01-26T08:00:03.274Z,11.25
2024-01-26T08:02:32.931Z,10.55
2024-01-26T08:05:01.444Z,10.70
2024-01-26T08:07:29.688Z,10.05
2024-01-26T08:09:59.092Z,11.13
2024-01-26T08:12:38.467Z,12.05
2024-01-26T08:15:13.081Z,14.07
2024-01-26T08:17:43.424Z,17.40
2024-01-26T08:20:13.467Z,9.98
2024-01-26T08:25:12.248Z,12.52
2024-01-26T08:27:40.851Z,9.27
2024-01-26T08:30:11.193Z,9.02
2024-01-26T08:32:39.353Z,8.43
2024-01-26T08:35:11.068Z,8.05
2024-01-26T08:37:39.863Z,9.57
2024-01-26T08:40:10.897Z,8.30
2024-01-26T08:42:40.588Z,8.77
2024-01-26T08:45:09.940Z,8.07
2024-01-26T08:47:38.318Z,9.00
2024-01-26T08:50:07.695Z,7.70
2024-01-26T08:52:36.769Z,7.43
2024-01-26T08:55:05.434Z,11.45
2024-01-26T08:57:33.469Z,7.57
2024-01-26T09:00:05.590Z,7.15
2024-01-26T09:02:34.168Z,6.95
2024-01-26T09:05:03.355Z,6.63
2024-01-26T09:07:32.068Z,6.63
2024-01-26T09:10:00.149Z,6.88
2024-01-26T09:12:28.082Z,5.55
2024-01-26T09:14:56.207Z,6.65
2024-01-26T09:17:26.034Z,6.85
2024-01-26T09:19:54.159Z,7.63
2024-01-26T09:22:22.485Z,6.47
2024-01-26T09:24:50.469Z,7.15
2024-01-26T09:27:18.556Z,6.43
2024-01-26T09:29:46.810Z,6.80
2024-01-26T09:32:14.987Z,6.07
2024-01-26T09:34:45.516Z,6.00
2024-01-26T09:37:13.564Z,5.53
2024-01-26T09:39:41.526Z,6.32
2024-01-26T09:42:13.690Z,6.90
2024-01-26T09:44:40.790Z,5.38
2024-01-26T09:47:10.013Z,4.82
2024-01-26T09:49:40.730Z,5.25
2024-01-26T09:52:12.296Z,4.88
2024-01-26T09:54:40.859Z,4.60
2024-01-26T09:57:12.397Z,5.13
2024-01-26T09:59:40.445Z,4.50
2024-01-26T10:02:09.359Z,3.97
2024-01-26T10:04:37.310Z,4.00
2024-01-26T10:07:05.754Z,3.47
2024-01-26T10:09:36.147Z,3.97
2024-01-26T10:12:04.421Z,4.00
2024-01-26T10:14:32.754Z,3.50
2024-01-26T10:17:01.550Z,4.18
2024-01-26T10:19:31.075Z,3.92
2024-01-26T10:22:00.822Z,3.53
2024-01-26T10:24:30.051Z,4.40
2024-01-26T10:26:59.640Z,3.15
2024-01-26T10:29:28.046Z,2.90
2024-01-26T10:31:56.169Z,3.42
2024-01-26T10:34:25.610Z,3.03
2024-01-26T10:37:00.119Z,1.42
2024-01-26T10:39:30.706Z,1.60
2024-01-26T10:42:06.010Z,1.17
2024-01-26T10:44:39.271Z,1.70
2024-01-26T10:47:10.363Z,1.13
2024-01-26T10:49:39.278Z,1.40
2024-01-26T10:52:08.686Z,1.83
2024-01-26T10:54:37.344Z,1.17
2024-01-26T10:57:07.067Z,1.30
2024-01-26T10:59:35.288Z,1.48
2024-01-26T11:02:03.733Z,2.35
2024-01-26T11:04:33.233Z,1.90
2024-01-26T11:07:02.286Z,1.50
2024-01-26T11:09:36.167Z,2.23
2024-01-26T11:12:04.348Z,1.75
2024-01-26T11:14:35.156Z,1.92
2024-01-26T11:17:13.707Z,2.83
2024-01-26T11:19:50.977Z,3.53
2024-01-26T11:22:21.531Z,3.38
2024-01-26T11:24:49.533Z,3.80
2024-01-26T11:27:17.688Z,4.30
2024-01-26T11:29:48.575Z,4.03
2024-01-26T11:32:19.222Z,3.25
2024-01-26T11:34:59.549Z,3.13
2024-01-26T11:37:29.579Z,3.00
2024-01-26T11:39:58.210Z,3.40
2024-01-26T11:42:26.660Z,2.17
2024-01-26T11:45:09.529Z,1.88
2024-01-26T11:47:39.835Z,3.05
2024-01-26T11:50:09.568Z,1.80
2024-01-26T11:52:38.041Z,1.60
2024-01-26T11:55:13.363Z,2.10
2024-01-26T11:57:41.851Z,1.80
2024-01-26T12:00:14.018Z,1.90
2024-01-26T12:02:42.668Z,3.85
2024-01-26T12:05:10.716Z,2.00
2024-01-26T12:07:39.806Z,2.22
2024-01-26T12:10:14.060Z,2.45
2024-01-26T12:12:42.423Z,3.08
2024-01-26T12:15:13.106Z,1.75
2024-01-26T12:17:41.595Z,1.02
2024-01-26T12:20:12.357Z,0.50
2024-01-26T12:22:40.881Z,0.55
2024-01-26T12:25:14.657Z,0.73
2024-01-26T12:27:43.029Z,1.05
2024-01-26T12:30:13.175Z,0.73
2024-01-26T12:35:10.281Z,0.93
2024-01-26T12:37:38.779Z,1.50
2024-01-26T12:40:08.141Z,1.38
2024-01-26T12:42:36.057Z,0.50
2024-01-26T12:45:04.045Z,2.95
2024-01-26T12:47:33.367Z,4.38
2024-01-26T12:50:02.199Z,1.30
2024-01-26T12:52:30.262Z,1.02
2024-01-26T12:54:58.278Z,3.08
2024-01-26T12:57:26.293Z,1.77
2024-01-26T12:59:54.262Z,0.98
2024-01-26T13:02:22.244Z,1.63
2024-01-26T13:04:54.159Z,1.52
2024-01-26T13:07:24.288Z,2.20
2024-01-26T13:09:52.479Z,1.92
2024-01-26T13:12:21.550Z,0.90
2024-01-26T13:14:49.736Z,2.20
2024-01-26T13:17:17.961Z,3.55
2024-01-26T13:19:46.072Z,1.33
2024-01-26T13:22:15.601Z,1.38
2024-01-26T13:24:43.553Z,1.92
2024-01-26T13:27:17.045Z,2.90
2024-01-26T13:29:48.490Z,4.05
2024-01-26T13:32:16.773Z,3.63
2024-01-26T13:34:45.005Z,5.82
2024-01-26T13:37:13.388Z,4.07
2024-01-26T13:39:42.706Z,4.93
2024-01-26T13:42:11.150Z,4.57
2024-01-26T13:44:39.158Z,4.57
2024-01-26T13:47:07.221Z,5.53
2024-01-26T13:49:35.262Z,6.20
2024-01-26T13:52:03.402Z,6.45
2024-01-26T13:54:31.428Z,6.72
2024-01-26T13:57:01.646Z,4.03
2024-01-26T13:59:29.766Z,4.28
2024-01-26T14:01:57.728Z,6.45
2024-01-26T14:04:25.705Z,7.70
2024-01-26T14:06:54.744Z,4.30
2024-01-26T14:09:22.897Z,7.18
2024-01-26T14:11:50.967Z,4.07
2024-01-26T14:14:23.799Z,10.35
2024-01-26T14:16:51.897Z,6.40
2024-01-26T14:19:20.432Z,6.40
2024-01-26T14:21:48.519Z,2.72
2024-01-26T14:24:16.522Z,5.10
2024-01-26T14:26:46.589Z,4.97
2024-01-26T14:31:47.035Z,4.95
2024-01-26T14:34:15.246Z,8.15
2024-01-26T14:36:43.729Z,8.68
2024-01-26T14:39:14.026Z,6.60
2024-01-26T14:41:42.449Z,4.40
2024-01-26T14:44:10.430Z,5.45
2024-01-26T14:46:39.618Z,4.07
2024-01-26T14:49:09.524Z,4.60
2024-01-26T14:51:41.398Z,5.05
2024-01-26T14:54:09.523Z,7.18
2024-01-26T14:56:38.657Z,5.35
2024-01-26T14:59:06.975Z,5.60
2024-01-26T15:01:36.924Z,6.03
2024-01-26T15:04:06.344Z,2.10
2024-01-26T15:06:35.706Z,7.63
2024-01-26T15:09:06.669Z,5.27
2024-01-26T15:11:34.713Z,3.95
2024-01-26T15:14:02.606Z,5.20
2024-01-26T15:16:34.364Z,5.90
2024-01-26T15:19:02.640Z,4.93
2024-01-26T15:21:30.843Z,6.40
2024-01-26T15:24:00.501Z,9.18
2024-01-26T15:26:28.527Z,6.00
2024-01-26T15:28:56.543Z,4.07
2024-01-26T15:31:24.723Z,6.63
2024-01-26T15:33:52.863Z,8.07
2024-01-26T15:36:32.410Z,7.22
2024-01-26T15:39:01.749Z,3.00
2024-01-26T15:41:29.656Z,2.83
2024-01-26T15:43:58.595Z,4.80
2024-01-26T15:46:27.750Z,9.80
2024-01-26T15:48:55.989Z,6.43
2024-01-26T15:51:24.152Z,4.03
2024-01-26T15:53:52.155Z,5.00
2024-01-26T15:56:23.312Z,4.70
2024-01-26T15:58:51.593Z,5.30
2024-01-26T16:01:19.689Z,3.45
2024-01-26T16:03:50.648Z,4.15
2024-01-26T16:06:18.834Z,3.15
2024-01-26T16:08:47.192Z,6.22
2024-01-26T16:11:18.273Z,5.47
2024-01-26T16:13:47.919Z,5.97
2024-01-26T16:16:17.493Z,6.28
2024-01-26T16:18:46.165Z,8.02
2024-01-26T16:21:14.432Z,6.57
2024-01-26T16:23:42.443Z,6.63
2024-01-26T16:26:14.283Z,8.30
2024-01-26T16:28:42.198Z,8.52
2024-01-26T16:31:13.232Z,6.60
2024-01-26T16:33:41.437Z,7.55
2024-01-26T16:36:09.834Z,5.10
2024-01-26T16:38:40.541Z,8.02
2024-01-26T16:41:12.885Z,6.13
2024-01-26T16:43:40.919Z,7.25
2024-01-26T16:46:10.308Z,9.02
2024-01-26T16:48:39.989Z,11.67
2024-01-26T16:51:08.223Z,7.63
2024-01-26T16:53:36.455Z,6.53
2024-01-26T16:56:04.765Z,8.95
2024-01-26T16:58:32.764Z,10.27
2024-01-26T17:01:00.824Z,10.68
2024-01-26T17:03:29.119Z,7.95
2024-01-26T17:06:00.075Z,7.53
2024-01-26T17:08:30.426Z,8.32
2024-01-26T17:13:28.182Z,7.40
2024-01-26T17:15:56.166Z,7.05
2024-01-26T17:18:24.288Z,12.57
2024-01-26T17:20:52.378Z,11.13
2024-01-26T17:23:22.588Z,8.88
2024-01-26T17:25:50.522Z,8.10
2024-01-26T17:28:18.566Z,9.13
2024-01-26T17:30:46.732Z,7.20
2024-01-26T17:33:16.389Z,10.90
2024-01-26T17:35:44.635Z,8.38
2024-01-26T17:38:12.825Z,12.25
2024-01-26T17:40:42.300Z,6.72
2024-01-26T17:43:10.464Z,5.47
2024-01-26T17:45:38.440Z,9.50
2024-01-26T17:48:07.538Z,6.70
2024-01-26T17:50:36.880Z,8.00
2024-01-26T17:53:05.408Z,11.50
2024-01-26T17:55:38.280Z,7.18
2024-01-26T17:58:09.284Z,9.60
2024-01-26T18:00:37.503Z,8.87
2024-01-26T18:03:06.216Z,8.57
2024-01-26T18:05:34.303Z,9.85
2024-01-26T18:08:02.505Z,7.22
2024-01-26T18:10:30.443Z,10.52
2024-01-26T18:12:58.969Z,9.45
2024-01-26T18:15:28.498Z,7.80
2024-01-26T18:17:56.695Z,8.35
2024-01-26T18:20:25.525Z,7.55
2024-01-26T18:22:54.705Z,13.52
2024-01-26T18:25:22.746Z,8.82
2024-01-26T18:27:51.001Z,9.38
2024-01-26T18:30:19.687Z,7.55
2024-01-26T18:32:49.324Z,9.98
2024-01-26T18:35:17.400Z,9.23
2024-01-26T18:37:45.979Z,5.15
2024-01-26T18:40:14.264Z,9.30
2024-01-26T18:42:42.662Z,5.57
2024-01-26T18:45:11.041Z,6.25
2024-01-26T18:47:39.187Z,7.00
2024-01-26T18:50:09.552Z,5.82
2024-01-26T18:52:37.680Z,6.15
2024-01-26T18:55:06.116Z,4.95
2024-01-26T18:57:34.309Z,7.68
2024-01-26T19:00:02.639Z,6.80
2024-01-26T19:02:30.891Z,6.82
2024-01-26T19:04:59.236Z,10.98
2024-01-26T19:07:28.558Z,12.52
2024-01-26T19:09:57.066Z,9.07
2024-01-26T19:12:27.298Z,5.57
2024-01-26T19:14:55.717Z,5.50
2024-01-26T19:17:24.148Z,8.50
2024-01-26T19:19:52.869Z,9.90
2024-01-26T19:22:22.913Z,11.43
2024-01-26T19:24:52.568Z,8.23
2024-01-26T19:27:21.559Z,12.38
2024-01-26T19:29:49.581Z,10.18
2024-01-26T19:32:17.456Z,10.95
2024-01-26T19:34:45.529Z,8.55
2024-01-26T19:37:13.663Z,10.30
2024-01-26T19:39:45.639Z,11.43
2024-01-26T19:42:15.348Z,11.93
2024-01-26T19:44:43.348Z,10.35
2024-01-26T19:47:11.315Z,8.80
2024-01-26T19:49:39.406Z,6.43
2024-01-26T19:52:07.744Z,9.25
2024-01-26T19:54:35.972Z,13.98
2024-01-26T19:57:06.985Z,11.07
2024-01-26T19:59:36.444Z,7.22
2024-01-26T20:02:04.795Z,13.80
2024-01-26T20:04:32.945Z,7.85
2024-01-26T20:07:01.605Z,11.65
2024-01-26T20:09:30.113Z,15.05
2024-01-26T20:11:58.350Z,11.80
2024-01-26T20:14:26.304Z,14.75
2024-01-26T20:16:55.905Z,10.73
2024-01-26T20:19:24.156Z,11.70
2024-01-26T20:21:52.969Z,8.63
2024-01-26T20:24:22.541Z,12.13
2024-01-26T20:26:50.709Z,10.45
2024-01-26T20:29:19.117Z,14.07
2024-01-26T20:31:48.922Z,11.75
2024-01-26T20:34:18.398Z,17.17
2024-01-26T20:36:46.586Z,11.85
2024-01-26T20:39:14.585Z,14.75
2024-01-26T20:41:42.601Z,13.73
2024-01-26T20:44:10.654Z,9.18
2024-01-26T20:46:38.636Z,12.43
2024-01-26T20:49:06.738Z,14.05
2024-01-26T20:51:36.319Z,9.77
2024-01-26T20:54:05.698Z,12.80
2024-01-26T20:56:34.904Z,13.80
2024-01-26T20:59:05.293Z,11.23
2024-01-26T21:01:35.506Z,16.25
2024-01-26T21:04:03.616Z,8.88
2024-01-26T21:06:31.570Z,12.82
2024-01-26T21:09:00.986Z,13.90
2024-01-26T21:11:30.055Z,12.27
2024-01-26T21:13:58.094Z,14.95
2024-01-26T21:16:27.418Z,17.50
2024-01-26T21:18:55.580Z,14.47
2024-01-26T21:21:23.729Z,12.90
2024-01-26T21:23:57.219Z,12.40
2024-01-26T21:26:27.638Z,11.23
2024-01-26T21:28:58.380Z,16.25
2024-01-26T21:31:29.200Z,11.00
2024-01-26T21:33:57.445Z,12.95
2024-01-26T21:36:25.717Z,10.45
2024-01-26T21:38:54.172Z,15.82
2024-01-26T21:41:22.534Z,15.10
2024-01-26T21:43:57.574Z,15.73
2024-01-26T21:46:25.841Z,18.95
2024-01-26T21:48:54.328Z,15.05
2024-01-26T21:51:24.888Z,9.85
2024-01-26T21:53:53.870Z,20.52
2024-01-26T21:56:22.206Z,8.23
2024-01-26T21:58:51.662Z,11.82
2024-01-26T22:01:19.721Z,14.48
2024-01-26T22:03:48.080Z,12.85
2024-01-26T22:06:16.249Z,12.95
2024-01-26T22:08:44.870Z,18.00
2024-01-26T22:11:12.860Z,13.43
2024-01-26T22:13:40.844Z,15.50
2024-01-26T22:16:11.069Z,16.17
2024-01-26T22:21:07.369Z,15.60
2024-01-26T22:23:35.327Z,17.00
2024-01-26T22:26:06.067Z,15.07
2024-01-26T22:28:34.035Z,20.02
2024-01-26T22:31:02.058Z,9.88
2024-01-26T22:33:31.432Z,18.90
2024-01-26T22:36:00.258Z,14.10
2024-01-26T22:38:28.169Z,23.30
2024-01-26T22:40:56.188Z,11.38
2024-01-26T22:43:24.513Z,14.73
2024-01-26T22:45:55.507Z,11.70
2024-01-26T22:48:25.461Z,12.55
2024-01-26T22:50:55.018Z,14.48
2024-01-26T22:53:22.978Z,17.77
2024-01-26T22:55:53.740Z,21.05
2024-01-26T22:58:21.920Z,21.15
2024-01-26T23:00:50.432Z,11.77
2024-01-26T23:03:18.565Z,13.05
2024-01-26T23:05:49.733Z,12.52
2024-01-26T23:08:19.170Z,12.27
2024-01-26T23:10:47.134Z,15.43
2024-01-26T23:13:15.010Z,17.55
2024-01-26T23:15:43.037Z,16.73
2024-01-26T23:18:11.387Z,12.98
2024-01-26T23:20:39.567Z,16.95
2024-01-26T23:23:07.647Z,12.95
2024-01-26T23:25:37.156Z,14.43
2024-01-26T23:28:06.526Z,15.70
2024-01-26T23:30:37.209Z,11.05
2024-01-26T23:33:05.680Z,17.65
2024-01-26T23:35:34.647Z,13.02
2024-01-26T23:38:02.625Z,13.52
2024-01-26T23:40:30.604Z,13.43
2024-01-26T23:43:00.156Z,15.52
2024-01-26T23:45:29.290Z,13.88
2024-01-26T23:47:57.822Z,14.82
2024-01-26T23:50:26.026Z,15.60
2024-01-26T23:52:54.041Z,9.75
2024-01-26T23:55:22.091Z,17.73
2024-01-26T23:57:49.994Z,13.40
